Time;durP1;ratioP1;P1;durP2;ratioP2;P2;SDS_P1;SDS_P2;PMS_P1;PMS_P2;Temp;Humidity;BMP_temperature;BMP_pressure;BME280_temperature;BME280_humidity;BME280_pressure;Samples;Min_cycle;Max_cycle;Signal;HPM_P1;HPM_P2
2022/10/27 00:00:47;;;;;;;1.47;1.17;;;24.70;71.40;;;;;;5074953;28;20536;-90
2022/10/27 00:03:15;;;;;;;1.10;1.00;;;24.80;71.50;;;;;;5074798;28;20457;-90
2022/10/27 00:05:42;;;;;;;1.17;1.07;;;24.90;71.60;;;;;;5074937;28;20512;-90
2022/10/27 00:08:13;;;;;;;2.23;0.97;;;24.70;71.30;;;;;;5074348;28;20482;-92
2022/10/27 00:10:41;;;;;;;1.00;0.90;;;24.80;71.40;;;;;;5075454;28;20467;-90
2022/10/27 00:13:08;;;;;;;1.33;1.23;;;24.70;71.40;;;;;;5074890;28;20445;-93
2022/10/27 00:15:35;;;;;;;1.07;0.97;;;24.70;71.30;;;;;;5074844;28;20438;-93
2022/10/27 00:18:01;;;;;;;1.40;1.30;;;24.70;71.40;;;;;;5075179;28;20937;-90
2022/10/27 00:20:28;;;;;;;1.10;1.00;;;24.70;71.30;;;;;;5061269;28;20440;-90
2022/10/27 00:22:55;;;;;;;1.43;1.33;;;24.70;71.30;;;;;;5054412;28;20439;-90
2022/10/27 00:25:23;;;;;;;1.13;1.03;;;24.70;71.30;;;;;;5054467;28;20439;-90
2022/10/27 00:27:50;;;;;;;1.10;1.00;;;24.70;71.30;;;;;;5054359;28;20502;-90
2022/10/27 00:30:18;;;;;;;1.20;1.10;;;24.70;71.30;;;;;;5074074;28;20494;-90
2022/10/27 00:32:45;;;;;;;1.27;1.17;;;24.70;71.30;;;;;;5078757;28;20451;-90
2022/10/27 00:35:12;;;;;;;1.37;1.27;;;24.70;72.20;;;;;;5097652;28;20485;-91
2022/10/27 00:37:39;;;;;;;1.30;1.20;;;24.70;71.30;;;;;;5083166;28;20445;-92
2022/10/27 00:40:06;;;;;;;2.40;1.03;;;24.70;71.30;;;;;;5076683;28;20569;-93
2022/10/27 00:42:35;;;;;;;1.00;0.90;;;24.70;71.30;;;;;;5076000;28;20893;-90
2022/10/27 00:45:01;;;;;;;1.07;0.97;;;24.70;71.30;;;;;;5074863;28;20445;-90
2022/10/27 00:47:33;;;;;;;1.17;1.03;;;24.80;71.40;;;;;;5074278;28;20716;-91
2022/10/27 00:50:03;;;;;;;1.00;0.90;;;24.70;71.30;;;;;;5074786;28;20441;-93
2022/10/27 00:52:34;;;;;;;1.10;1.00;;;24.70;71.30;;;;;;5080831;28;20433;-93
2022/10/27 00:55:04;;;;;;;1.20;1.10;;;24.80;72.20;;;;;;5074554;28;20934;-91
2022/10/27 00:57:34;;;;;;;1.10;1.00;;;24.70;71.30;;;;;;5074720;28;20444;-93
2022/10/27 01:00:03;;;;;;;1.00;0.90;;;24.70;71.30;;;;;;5073333;28;20449;-90
2022/10/27 01:02:31;;;;;;;0.97;0.87;;;24.70;71.30;;;;;;5074117;28;20537;-90
2022/10/27 01:05:03;;;;;;;1.10;1.00;;;24.70;71.30;;;;;;5075457;28;20461;-94
2022/10/27 01:07:31;;;;;;;1.10;1.00;;;24.70;71.30;;;;;;5073624;28;20489;-93
2022/10/27 01:09:58;;;;;;;1.23;1.00;;;24.70;71.30;;;;;;5073951;28;20471;-90
2022/10/27 01:12:25;;;;;;;1.07;0.97;;;24.70;71.20;;;;;;5074224;28;20550;-92
2022/10/27 01:14:53;;;;;;;1.07;0.97;;;24.70;71.20;;;;;;5073820;28;20456;-90
2022/10/27 01:17:35;;;;;;;1.13;1.03;;;24.70;71.20;;;;;;5073399;28;20455;-90
2022/10/27 01:20:38;;;;;;;1.17;0.90;;;24.70;71.20;;;;;;5074775;28;20439;-90
2022/10/27 01:23:14;;;;;;;1.20;1.10;;;24.70;71.20;;;;;;5073857;28;20800;-94
2022/10/27 01:25:59;;;;;;;1.70;1.10;;;24.70;71.30;;;;;;5073691;28;20930;-92
2022/10/27 01:29:14;;;;;;;1.30;1.20;;;24.70;71.30;;;;;;5073925;28;20468;-91
2022/10/27 01:31:49;;;;;;;1.13;0.90;;;24.70;71.20;;;;;;5073281;28;20426;-93
2022/10/27 01:34:22;;;;;;;1.10;1.00;;;24.70;71.30;;;;;;5073565;28;20792;-93
2022/10/27 01:36:53;;;;;;;1.00;0.90;;;24.70;71.30;;;;;;5073576;28;20454;-93
2022/10/27 01:39:37;;;;;;;1.13;1.03;;;24.70;71.30;;;;;;5073345;28;20426;-91
2022/10/27 01:42:09;;;;;;;1.10;1.00;;;24.70;71.30;;;;;;5031745;28;20529;-94
2022/10/27 01:44:41;;;;;;;1.20;1.07;;;24.70;71.30;;;;;;5031540;28;20432;-90
2022/10/27 01:47:10;;;;;;;1.00;0.80;;;24.70;71.30;;;;;;5031273;28;20694;-94
2022/10/27 01:49:37;;;;;;;1.10;0.90;;;24.70;71.30;;;;;;5031471;28;20455;-90
2022/10/27 01:52:06;;;;;;;1.23;1.13;;;24.70;71.30;;;;;;5031520;28;20443;-90
2022/10/27 01:54:33;;;;;;;1.10;1.00;;;24.70;71.30;;;;;;5031605;28;20447;-90
2022/10/27 01:57:17;;;;;;;1.00;0.90;;;24.70;71.20;;;;;;5031375;28;20446;-90
2022/10/27 01:59:57;;;;;;;0.90;0.80;;;24.70;71.20;;;;;;5031045;28;20994;-92
2022/10/27 02:02:33;;;;;;;1.03;0.93;;;24.70;71.20;;;;;;5031134;28;20450;-90
2022/10/27 02:05:08;;;;;;;1.10;1.00;;;24.70;71.20;;;;;;5030946;28;20490;-90
2022/10/27 02:07:43;;;;;;;1.10;1.00;;;24.70;71.30;;;;;;5040751;28;20490;-93
2022/10/27 02:10:15;;;;;;;0.83;0.77;;;24.70;71.20;;;;;;5051185;28;20910;-90
2022/10/27 02:12:44;;;;;;;0.93;0.83;;;24.70;71.20;;;;;;5067790;28;20444;-90
2022/10/27 02:15:20;;;;;;;2.60;1.00;;;24.80;71.30;;;;;;5097044;28;20442;-90
2022/10/27 02:17:52;;;;;;;1.33;1.23;;;24.70;71.20;;;;;;5096794;28;20923;-93
2022/10/27 02:20:23;;;;;;;1.10;1.00;;;24.60;71.10;;;;;;5096723;28;20428;-90
2022/10/27 02:22:51;;;;;;;1.10;1.00;;;24.60;71.00;;;;;;5097373;28;20979;-90
2022/10/27 02:25:21;;;;;;;0.80;0.70;;;24.60;71.10;;;;;;5096381;28;20793;-93
2022/10/27 02:27:51;;;;;;;1.10;1.00;;;24.60;71.00;;;;;;5096480;28;20483;-91
2022/10/27 02:30:18;;;;;;;1.20;1.10;;;24.60;71.00;;;;;;5097216;28;20441;-94
2022/10/27 02:32:46;;;;;;;1.00;0.90;;;24.70;71.20;;;;;;5096419;28;20445;-91
2022/10/27 02:35:16;;;;;;;1.00;0.90;;;24.70;71.10;;;;;;5096159;28;20940;-90
2022/10/27 02:37:46;;;;;;;1.23;1.13;;;24.60;71.00;;;;;;5096892;28;20927;-90
2022/10/27 02:40:12;;;;;;;1.10;1.00;;;24.60;71.00;;;;;;5096161;28;20453;-93
2022/10/27 02:42:39;;;;;;;1.50;1.00;;;24.60;71.00;;;;;;5096255;28;20454;-93
2022/10/27 02:45:07;;;;;;;1.07;0.97;;;24.70;71.20;;;;;;5096250;28;20440;-90
2022/10/27 02:47:34;;;;;;;1.07;0.97;;;24.60;71.00;;;;;;5096232;28;20489;-94
2022/10/27 02:50:00;;;;;;;1.00;0.90;;;24.60;71.00;;;;;;5096135;28;20807;-90
2022/10/27 02:52:28;;;;;;;0.80;0.70;;;24.60;71.00;;;;;;5095770;28;20446;-94
2022/10/27 02:54:55;;;;;;;1.20;1.10;;;24.70;71.10;;;;;;5095790;28;20455;-90
2022/10/27 02:57:22;;;;;;;1.07;0.97;;;24.60;70.90;;;;;;5095768;28;20541;-91
2022/10/27 02:59:49;;;;;;;1.00;0.90;;;24.60;71.00;;;;;;5095530;28;20449;-90
2022/10/27 03:02:16;;;;;;;1.23;1.13;;;24.60;70.90;;;;;;5095850;28;20789;-90
2022/10/27 03:04:42;;;;;;;0.90;0.80;;;24.70;71.10;;;;;;5096046;28;20448;-90
2022/10/27 03:07:09;;;;;;;1.10;0.93;;;24.80;71.20;;;;;;5095197;28;20508;-91
2022/10/27 03:09:37;;;;;;;1.10;0.90;;;24.60;70.90;;;;;;5095723;28;20444;-90
2022/10/27 03:12:04;;;;;;;0.97;0.90;;;24.60;70.90;;;;;;5095534;28;20449;-90
2022/10/27 03:14:31;;;;;;;1.20;1.10;;;24.60;70.90;;;;;;5095156;28;20448;-93
2022/10/27 03:16:58;;;;;;;1.03;0.93;;;24.60;70.90;;;;;;5095524;28;20441;-93
2022/10/27 03:19:25;;;;;;;1.20;0.87;;;24.60;70.90;;;;;;5095420;28;20440;-90
2022/10/27 03:21:51;;;;;;;1.10;1.00;;;24.60;70.90;;;;;;5094964;28;20536;-93
2022/10/27 03:24:18;;;;;;;1.00;0.90;;;24.60;70.90;;;;;;5095487;28;20449;-94
2022/10/27 03:26:46;;;;;;;1.00;0.90;;;24.60;70.90;;;;;;5095418;28;20497;-90
2022/10/27 03:29:13;;;;;;;0.90;0.80;;;24.60;70.90;;;;;;5095356;28;20804;-91
2022/10/27 03:31:40;;;;;;;1.23;1.07;;;24.60;70.90;;;;;;5094935;28;20452;-89
2022/10/27 03:34:07;;;;;;;1.00;0.90;;;24.70;71.10;;;;;;5095227;28;20448;-90
2022/10/27 03:36:33;;;;;;;0.93;0.80;;;24.60;70.90;;;;;;5095104;28;20444;-90
2022/10/27 03:39:00;;;;;;;1.00;0.90;;;24.60;70.90;;;;;;5094806;28;20452;-92
2022/10/27 03:41:27;;;;;;;0.90;0.80;;;24.60;70.90;;;;;;5095156;28;20465;-90
2022/10/27 03:43:55;;;;;;;0.80;0.80;;;24.60;70.90;;;;;;5094844;28;20439;-90
2022/10/27 03:46:22;;;;;;;0.90;0.87;;;24.60;70.90;;;;;;5094611;28;20448;-90
2022/10/27 03:48:49;;;;;;;1.27;0.97;;;24.60;70.90;;;;;;5095057;28;20440;-90
2022/10/27 03:51:15;;;;;;;1.27;1.00;;;24.60;70.90;;;;;;5094636;28;20448;-90
2022/10/27 03:53:42;;;;;;;0.93;0.80;;;24.60;70.90;;;;;;5094406;28;20443;-90
2022/10/27 03:56:12;;;;;;;1.17;1.00;;;24.60;70.90;;;;;;5094357;28;20442;-90
2022/10/27 03:58:39;;;;;;;1.00;0.90;;;24.60;70.90;;;;;;5094632;28;20442;-92
2022/10/27 04:01:07;;;;;;;1.30;1.00;;;24.60;70.90;;;;;;5094022;28;20535;-90
2022/10/27 04:03:33;;;;;;;1.20;0.80;;;24.60;70.90;;;;;;5094357;28;20459;-90
2022/10/27 04:06:00;;;;;;;1.17;1.07;;;24.60;70.90;;;;;;5093518;28;20448;-90
2022/10/27 04:08:27;;;;;;;0.90;0.80;;;24.60;70.90;;;;;;5093277;28;21054;-90
2022/10/27 04:10:54;;;;;;;1.00;0.90;;;24.60;70.90;;;;;;5093992;28;20461;-90
2022/10/27 04:13:20;;;;;;;0.90;0.80;;;24.70;71.00;;;;;;5093890;28;20449;-93
2022/10/27 04:15:47;;;;;;;1.00;0.80;;;24.70;71.00;;;;;;5094065;28;20452;-90
2022/10/27 04:18:15;;;;;;;0.90;0.80;;;24.60;70.90;;;;;;5093598;28;21014;-90
2022/10/27 04:20:42;;;;;;;1.30;1.10;;;24.70;70.90;;;;;;5093855;28;20441;-91
2022/10/27 04:23:09;;;;;;;1.07;0.80;;;24.70;70.90;;;;;;5094264;28;20452;-94
2022/10/27 04:25:36;;;;;;;2.33;1.30;;;24.50;70.70;;;;;;5093929;28;20445;-90
2022/10/27 04:28:03;;;;;;;1.00;0.90;;;24.50;70.70;;;;;;5093857;28;20568;-90
2022/10/27 04:30:30;;;;;;;0.90;0.90;;;24.50;70.80;;;;;;5093344;28;20457;-90
2022/10/27 04:32:57;;;;;;;1.00;0.90;;;24.50;70.70;;;;;;5093639;28;20441;-93
2022/10/27 04:35:26;;;;;;;1.10;0.90;;;24.50;70.70;;;;;;5093196;28;20448;-90
2022/10/27 04:37:55;;;;;;;1.30;1.10;;;24.60;70.80;;;;;;5093464;28;20459;-90
2022/10/27 04:40:22;;;;;;;1.37;0.90;;;24.60;70.80;;;;;;5093475;28;20464;-90
2022/10/27 04:42:48;;;;;;;1.00;0.80;;;24.50;70.70;;;;;;5093477;28;20455;-90
2022/10/27 04:45:15;;;;;;;0.90;0.80;;;24.50;70.70;;;;;;5093407;28;20445;-90
2022/10/27 04:47:43;;;;;;;1.00;0.90;;;24.50;70.70;;;;;;5093588;28;20484;-90
2022/10/27 04:50:10;;;;;;;1.20;0.90;;;24.50;70.70;;;;;;5093457;28;20478;-90
2022/10/27 04:52:38;;;;;;;0.97;0.87;;;24.50;70.60;;;;;;5093466;28;20439;-90
2022/10/27 04:55:06;;;;;;;0.80;0.80;;;24.50;70.70;;;;;;5093126;28;20932;-90
2022/10/27 04:57:33;;;;;;;1.00;0.90;;;24.50;70.60;;;;;;5093567;28;20432;-90
2022/10/27 05:00:00;;;;;;;0.80;0.80;;;24.50;70.70;;;;;;5093326;28;20440;-90
2022/10/27 05:02:26;;;;;;;1.10;0.90;;;24.50;70.90;;;;;;5093432;28;20449;-94
2022/10/27 05:04:53;;;;;;;1.00;0.90;;;24.50;70.60;;;;;;5093387;28;20445;-89
2022/10/27 05:07:20;;;;;;;0.90;0.80;;;24.50;70.70;;;;;;5093123;28;20494;-91
2022/10/27 05:09:48;;;;;;;1.00;0.90;;;24.50;70.70;;;;;;5092904;28;20466;-90
2022/10/27 05:12:15;;;;;;;0.80;0.70;;;24.50;70.60;;;;;;5092780;28;20448;-88
2022/10/27 05:14:42;;;;;;;0.80;0.67;;;24.50;70.60;;;;;;5092563;28;20446;-90
2022/10/27 05:17:08;;;;;;;0.90;0.80;;;24.50;70.60;;;;;;5091007;28;20445;-90
2022/10/27 05:19:35;;;;;;;0.90;0.80;;;24.70;70.90;;;;;;5088083;28;20537;-89
2022/10/27 05:22:02;;;;;;;0.80;0.70;;;24.50;70.60;;;;;;5091442;28;20445;-90
2022/10/27 05:24:29;;;;;;;1.10;0.90;;;24.50;70.60;;;;;;5091696;28;20951;-93
2022/10/27 05:26:57;;;;;;;1.00;0.90;;;24.50;70.60;;;;;;5093695;28;20445;-89
2022/10/27 05:29:25;;;;;;;0.80;0.80;;;24.50;70.60;;;;;;5089590;28;20808;-90
2022/10/27 05:31:54;;;;;;;0.97;0.87;;;24.50;70.60;;;;;;5091308;28;20436;-90
2022/10/27 05:34:20;;;;;;;0.90;0.80;;;24.50;70.60;;;;;;5093052;28;20436;-90
2022/10/27 05:36:47;;;;;;;1.07;0.97;;;24.50;70.60;;;;;;5093505;28;20793;-91
2022/10/27 05:39:14;;;;;;;1.40;1.00;;;24.50;70.60;;;;;;5093330;28;20445;-90
2022/10/27 05:41:41;;;;;;;0.90;0.70;;;24.50;70.60;;;;;;5080494;28;20458;-89
2022/10/27 05:44:09;;;;;;;0.80;0.80;;;24.50;70.70;;;;;;5072904;28;20966;-89
2022/10/27 05:46:36;;;;;;;1.20;1.10;;;24.50;70.70;;;;;;5075782;28;20932;-89
2022/10/27 05:49:03;;;;;;;0.90;0.80;;;24.50;70.70;;;;;;5076973;28;20943;-89
2022/10/27 05:51:29;;;;;;;1.00;0.80;;;24.50;70.70;;;;;;5082983;28;20451;-91
2022/10/27 05:53:56;;;;;;;1.30;0.90;;;24.50;70.80;;;;;;5097046;28;20467;-95
2022/10/27 05:56:24;;;;;;;0.80;0.70;;;24.50;70.80;;;;;;5097233;28;20450;-95
2022/10/27 05:58:50;;;;;;;0.90;0.70;;;24.50;70.90;;;;;;5096844;28;20476;-89
2022/10/27 06:01:19;;;;;;;0.90;0.80;;;24.50;70.90;;;;;;5096511;28;20447;-88
2022/10/27 06:03:46;;;;;;;1.00;0.90;;;24.50;71.00;;;;;;5096617;28;20449;-95
2022/10/27 06:06:13;;;;;;;2.03;0.70;;;24.50;71.10;;;;;;5096156;28;20441;-96
2022/10/27 06:08:40;;;;;;;0.97;0.70;;;24.50;71.10;;;;;;5096932;28;21006;-89
2022/10/27 06:11:07;;;;;;;1.40;0.80;;;24.50;71.30;;;;;;5097842;28;20468;-89
2022/10/27 06:13:34;;;;;;;1.83;0.90;;;24.50;72.30;;;;;;5098452;28;21024;-89
2022/10/27 06:16:01;;;;;;;4.03;0.90;;;24.50;71.40;;;;;;5097001;28;20442;-96
2022/10/27 06:18:29;;;;;;;1.87;1.77;;;24.60;71.50;;;;;;5096523;28;20437;-89
2022/10/27 06:20:56;;;;;;;1.27;1.17;;;24.50;71.40;;;;;;5097734;28;20447;-89
2022/10/27 06:23:22;;;;;;;2.70;2.50;;;24.50;71.50;;;;;;5097467;28;20448;-89
2022/10/27 06:25:49;;;;;;;2.23;2.13;;;24.50;71.70;;;;;;5097441;28;20799;-89
2022/10/27 06:28:16;;;;;;;2.60;2.40;;;24.60;71.90;;;;;;5096694;28;20497;-89
2022/10/27 06:30:46;;;;;;;1.87;1.77;;;24.50;71.80;;;;;;5098070;28;20462;-89
2022/10/27 06:33:13;;;;;;;2.13;2.03;;;24.50;71.90;;;;;;5097274;28;20524;-89
2022/10/27 06:35:41;;;;;;;2.30;2.10;;;24.50;72.10;;;;;;5097438;28;20445;-89
2022/10/27 06:38:08;;;;;;;2.13;1.93;;;24.50;72.90;;;;;;5096714;28;20456;-89
2022/10/27 06:40:35;;;;;;;2.20;2.00;;;24.50;72.20;;;;;;5096053;28;20464;-89
2022/10/27 06:43:02;;;;;;;1.97;1.87;;;24.60;72.30;;;;;;5096417;28;20457;-89
2022/10/27 06:45:28;;;;;;;2.23;2.13;;;24.50;73.10;;;;;;5097609;28;20457;-92
2022/10/27 06:47:57;;;;;;;1.70;1.60;;;24.50;72.30;;;;;;5097747;28;20509;-89
2022/10/27 06:50:24;;;;;;;1.97;1.87;;;24.50;72.30;;;;;;5097188;28;20811;-88
2022/10/27 06:52:52;;;;;;;1.90;1.67;;;24.50;72.40;;;;;;5096157;28;20455;-89
2022/10/27 06:55:19;;;;;;;1.80;1.70;;;24.50;72.40;;;;;;5098103;28;20447;-89
2022/10/27 06:57:46;;;;;;;3.43;2.43;;;24.50;72.40;;;;;;5095823;28;20924;-89
2022/10/27 07:00:13;;;;;;;2.00;1.90;;;24.50;72.50;;;;;;5095735;28;20448;-89
2022/10/27 07:02:40;;;;;;;2.30;2.10;;;24.50;72.50;;;;;;5096491;28;20825;-89
2022/10/27 07:05:08;;;;;;;2.20;2.10;;;24.50;72.50;;;;;;5099075;28;20441;-94
2022/10/27 07:07:36;;;;;;;2.03;1.93;;;24.50;72.50;;;;;;5096205;28;20472;-92
2022/10/27 07:10:06;;;;;;;2.23;2.13;;;24.50;72.40;;;;;;5095745;28;20485;-92
2022/10/27 07:12:33;;;;;;;2.17;2.07;;;24.50;72.50;;;;;;5095480;28;20532;-93
2022/10/27 07:15:00;;;;;;;2.07;1.97;;;24.60;72.70;;;;;;5095523;28;20552;-90
2022/10/27 07:17:27;;;;;;;3.57;2.23;;;24.50;72.60;;;;;;5095287;28;20440;-91
2022/10/27 07:19:54;;;;;;;2.00;1.90;;;24.50;72.70;;;;;;5095546;28;20447;-92
2022/10/27 07:22:21;;;;;;;2.10;2.00;;;24.50;72.70;;;;;;5095386;28;20441;-90
2022/10/27 07:24:47;;;;;;;2.23;2.03;;;24.50;72.80;;;;;;5095220;28;20446;-90
2022/10/27 07:27:15;;;;;;;2.40;2.20;;;24.70;72.90;;;;;;5095246;28;20440;-89
2022/10/27 07:29:42;;;;;;;2.90;2.40;;;24.50;72.50;;;;;;5094443;28;20508;-90
2022/10/27 07:32:09;;;;;;;2.00;1.90;;;24.50;72.60;;;;;;5095104;28;20441;-90
2022/10/27 07:34:36;;;;;;;2.20;2.10;;;24.50;72.50;;;;;;5094944;28;20454;-90
2022/10/27 07:37:03;;;;;;;2.33;2.20;;;24.50;72.50;;;;;;5095081;28;20471;-91
2022/10/27 07:39:29;;;;;;;1.60;1.50;;;24.70;72.60;;;;;;5094802;28;20462;-91
2022/10/27 07:41:56;;;;;;;1.83;1.73;;;24.60;72.40;;;;;;5094586;28;20451;-90
2022/10/27 07:44:24;;;;;;;2.50;2.30;;;24.60;72.30;;;;;;5094696;28;20460;-90
2022/10/27 07:46:51;;;;;;;6.20;2.33;;;24.60;72.10;;;;;;5094852;28;20438;-88
2022/10/27 07:49:18;;;;;;;1.40;1.20;;;24.60;72.00;;;;;;5094407;28;20472;-88
2022/10/27 07:51:45;;;;;;;2.07;1.53;;;24.60;71.50;;;;;;5093932;28;20456;-90
2022/10/27 07:54:12;;;;;;;1.40;1.30;;;24.60;71.00;;;;;;5097040;28;20445;-88
2022/10/27 07:56:38;;;;;;;9.13;2.10;;;24.60;71.90;;;;;;5090552;28;20471;-91
2022/10/27 07:59:05;;;;;;;3.50;1.70;;;24.70;70.90;;;;;;5092922;28;20940;-91
2022/10/27 08:01:34;;;;;;;1.83;1.43;;;24.70;71.00;;;;;;5093305;28;20443;-92
2022/10/27 08:04:00;;;;;;;4.50;1.47;;;24.70;71.00;;;;;;5092901;28;20471;-87
2022/10/27 08:06:27;;;;;;;1.93;1.57;;;24.80;71.10;;;;;;5092859;28;20435;-87
2022/10/27 08:08:54;;;;;;;2.17;1.60;;;24.80;70.90;;;;;;5090918;28;20581;-88
2022/10/27 08:11:22;;;;;;;1.90;1.40;;;24.80;70.70;;;;;;5093978;28;20488;-88
2022/10/27 08:13:51;;;;;;;1.80;1.70;;;24.80;70.50;;;;;;5095210;28;20541;-95
2022/10/27 08:16:18;;;;;;;1.80;1.70;;;24.90;70.70;;;;;;5092498;28;20465;-90
2022/10/27 08:18:46;;;;;;;2.03;1.93;;;24.90;70.80;;;;;;5073765;28;20446;-86
2022/10/27 08:21:13;;;;;;;1.60;1.50;;;25.00;70.90;;;;;;5073757;28;20885;-88
2022/10/27 08:23:40;;;;;;;2.60;1.50;;;25.00;70.70;;;;;;5091780;28;20524;-87
2022/10/27 08:26:07;;;;;;;1.70;1.60;;;25.10;70.70;;;;;;5094044;28;20433;-88
2022/10/27 08:28:34;;;;;;;1.57;1.47;;;25.10;70.50;;;;;;5094260;28;20571;-91
2022/10/27 08:31:01;;;;;;;1.60;1.50;;;25.20;70.60;;;;;;5094052;28;20443;-91
2022/10/27 08:33:27;;;;;;;1.87;1.73;;;25.20;70.50;;;;;;5094338;28;20873;-91
2022/10/27 08:35:56;;;;;;;2.17;1.67;;;25.30;70.50;;;;;;5094222;28;20456;-91
2022/10/27 08:38:23;;;;;;;1.73;1.50;;;25.40;70.40;;;;;;5094056;28;20538;-90
2022/10/27 08:41:13;;;;;;;1.70;1.57;;;25.50;70.40;;;;;;5093214;28;20464;-91
2022/10/27 08:44:03;;;;;;;3.43;1.50;;;25.60;70.30;;;;;;5094160;28;20434;-91
2022/10/27 08:46:39;;;;;;;1.73;1.60;;;25.60;70.20;;;;;;5094065;28;20523;-91
2022/10/27 08:49:15;;;;;;;4.90;1.73;;;25.70;70.00;;;;;;5093653;28;20570;-91
2022/10/27 08:51:44;;;;;;;2.00;1.63;;;25.80;70.00;;;;;;5094045;28;20435;-88
2022/10/27 08:54:12;;;;;;;1.90;1.70;;;26.00;69.70;;;;;;5093727;28;20531;-88
2022/10/27 08:56:41;;;;;;;3.50;1.77;;;26.20;69.30;;;;;;5093637;28;20546;-89
2022/10/27 08:59:14;;;;;;;2.67;2.40;;;26.50;68.80;;;;;;5093690;28;20445;-88
2022/10/27 09:01:50;;;;;;;2.20;1.90;;;26.60;68.30;;;;;;5094033;28;20432;-89
2022/10/27 09:04:30;;;;;;;2.40;1.63;;;26.70;68.20;;;;;;5093735;28;20446;-88
2022/10/27 09:07:09;;;;;;;6.83;1.97;;;26.70;68.20;;;;;;5094217;28;20475;-88
2022/10/27 09:09:45;;;;;;;2.27;1.50;;;26.70;68.40;;;;;;5093722;28;20855;-88
2022/10/27 09:12:22;;;;;;;2.33;1.43;;;26.70;68.40;;;;;;5093811;28;20435;-88
2022/10/27 09:15:22;;;;;;;1.70;1.50;;;27.00;68.10;;;;;;5093776;28;20440;-90
2022/10/27 09:17:56;;;;;;;2.10;1.80;;;27.40;67.40;;;;;;5085688;28;20476;-88
2022/10/27 09:20:29;;;;;;;1.77;1.30;;;27.70;66.60;;;;;;5094510;28;20529;-88
2022/10/27 09:23:02;;;;;;;2.27;1.13;;;28.10;65.90;;;;;;5097876;28;20533;-88
2022/10/27 09:25:29;;;;;;;1.60;1.27;;;28.30;65.00;;;;;;5097752;28;20520;-89
2022/10/27 09:27:59;;;;;;;1.60;1.33;;;28.60;64.60;;;;;;5097570;28;20453;-89
2022/10/27 09:30:32;;;;;;;3.97;1.30;;;28.80;64.00;;;;;;5097472;28;20564;-88
2022/10/27 09:33:00;;;;;;;2.63;1.50;;;29.10;63.60;;;;;;5097792;28;20442;-88
2022/10/27 09:35:28;;;;;;;1.40;1.30;;;29.20;63.30;;;;;;5097433;28;20529;-89
2022/10/27 09:37:57;;;;;;;1.47;1.37;;;29.40;62.90;;;;;;5097302;28;20440;-89
2022/10/27 09:40:25;;;;;;;1.60;1.50;;;29.70;62.50;;;;;;5097137;28;20452;-89
2022/10/27 09:42:55;;;;;;;2.00;1.67;;;29.80;62.20;;;;;;5097080;28;20474;-88
2022/10/27 09:45:24;;;;;;;2.13;1.20;;;29.70;62.20;;;;;;5097037;28;20438;-89
2022/10/27 09:47:53;;;;;;;1.20;1.10;;;29.80;62.30;;;;;;5097116;28;20448;-91
2022/10/27 09:50:23;;;;;;;1.50;1.40;;;29.90;62.10;;;;;;5097199;28;21023;-88
2022/10/27 09:52:51;;;;;;;1.30;1.20;;;29.90;62.10;;;;;;5097165;28;20516;-89
2022/10/27 09:55:20;;;;;;;1.10;1.00;;;29.90;62.00;;;;;;5097126;28;20534;-88
2022/10/27 09:57:49;;;;;;;1.43;1.33;;;30.10;61.80;;;;;;5097233;28;20448;-89
2022/10/27 10:00:27;;;;;;;2.57;1.20;;;30.20;61.50;;;;;;5096971;28;20442;-89
2022/10/27 10:03:00;;;;;;;1.10;1.00;;;30.30;61.40;;;;;;5096660;28;20516;-90
2022/10/27 10:05:28;;;;;;;1.47;1.37;;;30.50;61.20;;;;;;5097035;28;20425;-88
2022/10/27 10:08:12;;;;;;;1.10;1.00;;;30.60;61.00;;;;;;5096811;28;20471;-88
2022/10/27 10:10:52;;;;;;;1.20;0.93;;;30.80;60.50;;;;;;5096524;28;20996;-92
2022/10/27 10:13:21;;;;;;;1.30;1.20;;;30.80;60.60;;;;;;5096864;28;20452;-90
2022/10/27 10:15:48;;;;;;;2.63;1.13;;;30.70;60.80;;;;;;5096830;28;20456;-88
2022/10/27 10:18:24;;;;;;;1.80;1.10;;;30.50;61.30;;;;;;5096506;28;20813;-88
2022/10/27 10:20:57;;;;;;;1.20;1.10;;;30.30;61.80;;;;;;5097039;28;20524;-92
2022/10/27 10:23:27;;;;;;;3.07;1.13;;;30.00;62.60;;;;;;5096628;28;20439;-83
2022/10/27 10:25:57;;;;;;;1.23;1.13;;;29.60;62.70;;;;;;5095554;28;20450;-89
2022/10/27 10:28:32;;;;;;;1.30;1.20;;;29.30;62.70;;;;;;5096568;28;20431;-90
2022/10/27 10:31:01;;;;;;;2.63;1.17;;;29.10;63.70;;;;;;5096943;28;20463;-89
2022/10/27 10:33:33;;;;;;;7.33;1.23;;;28.90;64.30;;;;;;5095471;28;20445;-88
2022/10/27 10:36:01;;;;;;;1.53;1.33;;;28.70;64.90;;;;;;5096759;28;20527;-89
2022/10/27 10:38:36;;;;;;;1.73;1.20;;;28.50;65.50;;;;;;5096845;28;20457;-89
2022/10/27 10:41:10;;;;;;;2.00;1.33;;;28.40;65.90;;;;;;5096405;28;20619;-87
2022/10/27 10:43:37;;;;;;;1.93;1.20;;;28.30;66.20;;;;;;5096460;28;20443;-87
2022/10/27 10:46:05;;;;;;;1.50;1.40;;;28.20;66.50;;;;;;5096022;28;20928;-89
2022/10/27 10:48:38;;;;;;;1.00;0.90;;;28.20;66.70;;;;;;5095903;28;20440;-88
2022/10/27 10:51:06;;;;;;;4.50;1.87;;;28.00;66.80;;;;;;5095926;28;20488;-87
2022/10/27 10:53:37;;;;;;;1.43;0.90;;;27.90;67.00;;;;;;5096112;28;20470;-88
2022/10/27 10:56:19;;;;;;;1.27;1.07;;;27.80;67.10;;;;;;5095812;28;20539;-88
2022/10/27 10:58:47;;;;;;;2.20;0.93;;;27.70;67.40;;;;;;5095860;28;20436;-88
2022/10/27 11:01:14;;;;;;;2.20;1.30;;;27.70;67.50;;;;;;5095470;28;20450;-89
2022/10/27 11:03:45;;;;;;;2.53;1.37;;;27.60;67.70;;;;;;5095758;28;20440;-87
2022/10/27 11:06:18;;;;;;;1.80;1.10;;;27.50;67.80;;;;;;5096263;28;20447;-89
2022/10/27 11:08:56;;;;;;;2.70;1.37;;;27.50;68.10;;;;;;5095409;28;20541;-88
2022/10/27 11:11:27;;;;;;;4.37;1.50;;;27.50;68.10;;;;;;5095947;28;20709;-89
2022/10/27 11:13:58;;;;;;;2.23;1.40;;;27.50;68.40;;;;;;5095779;28;20444;-87
2022/10/27 11:16:25;;;;;;;4.20;1.07;;;27.40;68.50;;;;;;5095535;28;20444;-90
2022/10/27 11:18:54;;;;;;;2.40;1.40;;;27.40;68.60;;;;;;5096180;28;20448;-91
2022/10/27 11:21:30;;;;;;;3.20;1.40;;;27.40;68.70;;;;;;5095326;28;20436;-90
2022/10/27 11:24:01;;;;;;;3.90;1.00;;;27.50;69.00;;;;;;5095301;28;20464;-89
2022/10/27 11:26:34;;;;;;;2.10;1.30;;;27.30;69.10;;;;;;5095492;28;20452;-89
2022/10/27 11:29:10;;;;;;;1.20;0.87;;;27.20;69.00;;;;;;5094239;28;20450;-90
2022/10/27 11:31:44;;;;;;;1.23;1.00;;;27.10;68.00;;;;;;5094966;28;20439;-91
2022/10/27 11:34:21;;;;;;;5.10;1.00;;;26.90;67.50;;;;;;5085699;28;20955;-91
2022/10/27 11:36:56;;;;;;;2.30;1.10;;;26.90;68.00;;;;;;5094943;28;20436;-89
2022/10/27 11:39:30;;;;;;;1.77;1.23;;;27.00;68.80;;;;;;5094943;28;20533;-90
2022/10/27 11:42:07;;;;;;;4.17;1.10;;;27.00;68.90;;;;;;5095376;28;20446;-90
2022/10/27 11:44:41;;;;;;;2.37;1.00;;;27.00;69.00;;;;;;5094870;28;20447;-90
2022/10/27 11:47:13;;;;;;;1.87;1.20;;;27.00;69.20;;;;;;5095167;28;20447;-89
2022/10/27 11:49:49;;;;;;;2.80;1.23;;;27.00;69.40;;;;;;5095042;28;20417;-90
2022/10/27 11:52:20;;;;;;;1.50;1.10;;;27.00;69.40;;;;;;5094839;28;20434;-89
2022/10/27 11:54:47;;;;;;;1.40;1.20;;;27.00;69.60;;;;;;5095177;28;20444;-89
2022/10/27 11:57:25;;;;;;;1.30;1.13;;;27.00;69.70;;;;;;5094570;28;20946;-90
2022/10/27 12:00:06;;;;;;;1.77;1.10;;;27.00;69.80;;;;;;5074104;28;20493;-90
2022/10/27 12:02:52;;;;;;;2.53;1.37;;;27.00;69.90;;;;;;5074462;28;20433;-90
2022/10/27 12:05:25;;;;;;;1.63;0.90;;;27.00;69.90;;;;;;5074357;28;20936;-90
2022/10/27 12:08:02;;;;;;;1.60;0.93;;;26.90;70.00;;;;;;5074454;28;20478;-91
2022/10/27 12:10:36;;;;;;;3.00;1.20;;;27.00;70.00;;;;;;5074201;28;20483;-91
2022/10/27 12:13:09;;;;;;;3.37;1.00;;;27.00;70.10;;;;;;5074486;28;20436;-89
2022/10/27 12:15:45;;;;;;;2.60;1.10;;;26.90;70.10;;;;;;5073886;28;20429;-92
2022/10/27 12:18:21;;;;;;;2.23;1.10;;;27.00;70.20;;;;;;5074324;28;20525;-89
2022/10/27 12:20:52;;;;;;;1.30;0.80;;;26.90;70.20;;;;;;5074291;28;20480;-90
2022/10/27 12:23:24;;;;;;;0.97;0.87;;;27.00;70.30;;;;;;5074140;28;20794;-90
2022/10/27 12:25:58;;;;;;;1.83;1.10;;;26.90;70.30;;;;;;5074252;28;20429;-92
2022/10/27 12:28:28;;;;;;;1.13;0.90;;;26.90;71.20;;;;;;5073956;28;20793;-90
2022/10/27 12:31:00;;;;;;;1.30;0.90;;;26.90;70.40;;;;;;5073838;28;20445;-90
2022/10/27 12:33:34;;;;;;;1.13;1.03;;;27.00;71.40;;;;;;5074170;28;20858;-90
2022/10/27 12:36:07;;;;;;;0.90;0.77;;;26.90;70.50;;;;;;5073762;28;20980;-89
2022/10/27 12:38:45;;;;;;;1.40;1.00;;;26.90;70.60;;;;;;5073726;28;20479;-90
2022/10/27 12:41:21;;;;;;;1.77;1.00;;;26.90;70.60;;;;;;5074065;28;20465;-90
2022/10/27 12:43:56;;;;;;;2.70;0.80;;;26.90;70.70;;;;;;5073919;28;20437;-91
2022/10/27 12:46:35;;;;;;;1.00;0.90;;;26.90;70.70;;;;;;5074168;28;20439;-90
2022/10/27 12:49:11;;;;;;;1.10;1.00;;;26.90;70.70;;;;;;5073897;28;20439;-92
2022/10/27 12:51:50;;;;;;;1.30;1.03;;;26.90;70.80;;;;;;5073941;28;20519;-89
2022/10/27 12:54:31;;;;;;;1.30;1.00;;;26.90;70.80;;;;;;5074048;28;20436;-92
2022/10/27 12:57:06;;;;;;;1.90;1.20;;;26.90;70.90;;;;;;5073676;28;20434;-88
2022/10/27 12:59:47;;;;;;;2.60;0.90;;;26.80;70.90;;;;;;5073638;28;20478;-88
2022/10/27 13:02:15;;;;;;;1.20;1.10;;;26.80;70.90;;;;;;5073397;28;20937;-88